Time;durP1;ratioP1;P1;durP2;ratioP2;P2;SDS_P1;SDS_P2;PMS_P1;PMS_P2;Temp;Humidity;BMP_temperature;BMP_pressure;BME280_temperature;BME280_humidity;BME280_pressure;Samples;Min_cycle;Max_cycle;Signal;HPM_P1;HPM_P2
2021/05/20 00:00:26;;;;;;;;;;;21.00;44.80;;;;;;460661;257;1171;-46
2021/05/20 00:02:27;;;;;;;;;;;21.00;44.70;;;;;;462114;257;1238;-46
2021/05/20 00:04:28;;;;;;;;;;;21.00;44.70;;;;;;461829;256;2206;-46
2021/05/20 00:06:29;;;;;;;;;;;21.10;44.70;;;;;;460607;256;1201;-46
2021/05/20 00:08:31;;;;;;;;;;;21.10;44.60;;;;;;460545;258;1103;-46
2021/05/20 00:10:32;;;;;;;;;;;21.10;44.60;;;;;;460548;259;1175;-46
2021/05/20 00:12:33;;;;;;;;;;;21.20;44.60;;;;;;460856;258;1264;-46
2021/05/20 00:14:35;;;;;;;;;;;21.20;44.60;;;;;;460592;259;1099;-46
2021/05/20 00:16:36;;;;;;;;;;;21.20;44.50;;;;;;460708;258;1105;-46
2021/05/20 00:18:37;;;;;;;;;;;21.20;44.50;;;;;;460986;258;1173;-46
2021/05/20 00:20:39;;;;;;;;;;;21.20;44.50;;;;;;461879;257;1164;-46
2021/05/20 00:22:40;;;;;;;;;;;21.20;44.50;;;;;;460686;256;1151;-46
2021/05/20 00:24:41;;;;;;;;;;;21.20;44.50;;;;;;461979;257;2195;-46
2021/05/20 00:26:43;;;;;;;;;;;21.20;44.40;;;;;;461865;256;1224;-46
2021/05/20 00:28:44;;;;;;;;;;;21.20;44.40;;;;;;461885;256;1066;-46
2021/05/20 00:30:45;;;;;;;;;;;21.20;44.40;;;;;;461804;256;1167;-46
2021/05/20 00:32:46;;;;;;;;;;;21.20;44.40;;;;;;461753;256;1189;-46
2021/05/20 00:34:48;;;;;;;;;;;21.20;44.40;;;;;;462131;256;1099;-46
2021/05/20 00:36:49;;;;;;;;;;;21.30;44.40;;;;;;467789;252;1430;-46
2021/05/20 00:38:50;;;;;;;;;;;21.30;44.40;;;;;;470587;253;1072;-46
2021/05/20 00:40:52;;;;;;;;;;;21.30;44.30;;;;;;470368;252;1282;-46
2021/05/20 00:42:53;;;;;;;;;;;21.30;44.20;;;;;;460869;256;2153;-46
2021/05/20 00:44:54;;;;;;;;;;;21.40;44.20;;;;;;460940;258;1077;-46
2021/05/20 00:46:55;;;;;;;;;;;21.40;44.30;;;;;;461947;257;1447;-46
2021/05/20 00:48:57;;;;;;;;;;;21.40;44.20;;;;;;461980;256;1074;-46
2021/05/20 00:50:58;;;;;;;;;;;21.40;44.20;;;;;;461824;256;1099;-46
2021/05/20 00:52:59;;;;;;;;;;;21.40;44.20;;;;;;460562;256;1071;-46
2021/05/20 00:55:00;;;;;;;;;;;21.40;44.20;;;;;;461912;257;1095;-46
2021/05/20 00:57:02;;;;;;;;;;;21.40;44.20;;;;;;461742;256;1306;-46
2021/05/20 00:59:03;;;;;;;;;;;21.40;44.20;;;;;;461821;256;1152;-46
2021/05/20 01:01:04;;;;;;;;;;;21.50;44.10;;;;;;460412;259;1289;-46
2021/05/20 01:03:06;;;;;;;;;;;21.40;44.10;;;;;;463145;257;2191;-46
2021/05/20 01:05:07;;;;;;;;;;;21.50;44.10;;;;;;463276;255;1078;-46
2021/05/20 01:07:08;;;;;;;;;;;21.50;44.10;;;;;;463521;255;1316;-46
2021/05/20 01:09:09;;;;;;;;;;;21.50;44.10;;;;;;460751;257;1100;-46
2021/05/20 01:11:11;;;;;;;;;;;21.50;44.10;;;;;;461784;257;1251;-46
2021/05/20 01:13:12;;;;;;;;;;;21.50;44.10;;;;;;460684;256;1322;-46
2021/05/20 01:15:13;;;;;;;;;;;21.50;44.00;;;;;;462310;256;1088;-46
2021/05/20 01:17:15;;;;;;;;;;;21.50;44.00;;;;;;468210;252;1344;-46
2021/05/20 01:19:16;;;;;;;;;;;21.50;44.00;;;;;;462129;257;1190;-46
2021/05/20 01:21:17;;;;;;;;;;;21.50;44.00;;;;;;461781;256;1192;-46
2021/05/20 01:23:18;;;;;;;;;;;21.60;43.90;;;;;;460369;259;2156;-46
2021/05/20 01:25:20;;;;;;;;;;;21.60;43.90;;;;;;463051;257;1139;-46
2021/05/20 01:27:21;;;;;;;;;;;21.60;44.00;;;;;;463073;256;1300;-46
2021/05/20 01:29:22;;;;;;;;;;;21.60;44.00;;;;;;463212;257;1100;-46
2021/05/20 01:31:24;;;;;;;;;;;21.50;44.00;;;;;;463261;255;1253;-46
2021/05/20 01:33:25;;;;;;;;;;;21.60;43.90;;;;;;460810;257;1092;-46
2021/05/20 01:35:26;;;;;;;;;;;21.60;43.90;;;;;;463187;257;1084;-46
2021/05/20 01:37:27;;;;;;;;;;;21.60;44.00;;;;;;460597;257;1259;-46
2021/05/20 01:39:29;;;;;;;;;;;21.60;43.90;;;;;;462034;256;1211;-46
2021/05/20 01:41:30;;;;;;;;;;;21.60;43.90;;;;;;460884;256;1309;-46
2021/05/20 01:43:31;;;;;;;;;;;21.60;43.90;;;;;;463496;257;2152;-46
2021/05/20 01:45:32;;;;;;;;;;;21.60;43.90;;;;;;463135;255;1089;-46
2021/05/20 01:47:34;;;;;;;;;;;21.60;43.90;;;;;;460744;257;1068;-46
2021/05/20 01:49:35;;;;;;;;;;;21.60;43.90;;;;;;463122;257;1063;-46
2021/05/20 01:51:36;;;;;;;;;;;21.60;43.90;;;;;;463128;256;1202;-46
2021/05/20 01:53:38;;;;;;;;;;;21.60;43.90;;;;;;460685;257;1085;-46
2021/05/20 01:55:39;;;;;;;;;;;21.60;43.90;;;;;;463112;257;1085;-46
2021/05/20 01:57:40;;;;;;;;;;;21.60;43.80;;;;;;460646;257;1235;-46
2021/05/20 01:59:41;;;;;;;;;;;21.70;43.80;;;;;;460668;258;1385;-46
2021/05/20 02:01:43;;;;;;;;;;;21.70;43.80;;;;;;460525;258;1339;-46
2021/05/20 02:03:44;;;;;;;;;;;21.70;43.80;;;;;;461998;255;2203;-46
2021/05/20 02:05:45;;;;;;;;;;;21.70;43.80;;;;;;460786;256;1305;-46
2021/05/20 02:07:47;;;;;;;;;;;21.70;43.70;;;;;;463186;257;1246;-46
2021/05/20 02:09:48;;;;;;;;;;;21.70;43.80;;;;;;463308;255;1056;-46
2021/05/20 02:11:49;;;;;;;;;;;21.70;43.80;;;;;;460600;257;1461;-46
2021/05/20 02:13:50;;;;;;;;;;;21.70;43.80;;;;;;460797;258;1258;-46
2021/05/20 02:15:52;;;;;;;;;;;21.70;43.60;;;;;;461908;257;1735;-46
2021/05/20 02:17:53;;;;;;;;;;;21.40;44.20;;;;;;461897;256;1095;-46
2021/05/20 02:19:55;;;;;;;;;;;20.90;45.40;;;;;;461888;256;1090;-46
2021/05/20 02:21:56;;;;;;;;;;;20.50;46.40;;;;;;460643;256;1386;-46
2021/05/20 02:23:57;;;;;;;;;;;20.20;47.30;;;;;;462301;257;2155;-46
2021/05/20 02:25:59;;;;;;;;;;;19.90;47.90;;;;;;461090;256;1487;-46
2021/05/20 02:28:00;;;;;;;;;;;19.80;48.40;;;;;;461988;257;1140;-46
2021/05/20 02:30:01;;;;;;;;;;;19.50;48.80;;;;;;460583;256;1074;-46
2021/05/20 02:32:02;;;;;;;;;;;19.50;49.20;;;;;;461932;257;1459;-46
2021/05/20 02:34:04;;;;;;;;;;;19.40;49.50;;;;;;460921;256;1068;-46
2021/05/20 02:36:05;;;;;;;;;;;19.30;49.60;;;;;;461904;257;1332;-46
2021/05/20 02:38:06;;;;;;;;;;;19.20;49.70;;;;;;461826;256;1094;-46
2021/05/20 02:40:08;;;;;;;;;;;19.20;49.80;;;;;;460662;256;1117;-46
2021/05/20 02:42:09;;;;;;;;;;;19.20;49.90;;;;;;460506;258;1163;-46
2021/05/20 02:44:10;;;;;;;;;;;19.10;49.90;;;;;;463147;257;2172;-46
2021/05/20 02:46:11;;;;;;;;;;;19.10;50.10;;;;;;463089;255;1440;-46
2021/05/20 02:48:13;;;;;;;;;;;19.00;50.30;;;;;;460640;257;1042;-46
2021/05/20 02:50:14;;;;;;;;;;;18.90;50.30;;;;;;460576;258;1093;-46
2021/05/20 02:52:15;;;;;;;;;;;18.90;50.40;;;;;;461865;257;1177;-46
2021/05/20 02:54:16;;;;;;;;;;;18.90;50.60;;;;;;460684;256;1039;-46
2021/05/20 02:56:18;;;;;;;;;;;18.80;50.70;;;;;;460494;259;1307;-46
2021/05/20 02:58:20;;;;;;;;;;;18.80;50.80;;;;;;460683;258;1206;-46
2021/05/20 03:00:21;;;;;;;;;;;18.70;50.80;;;;;;460665;257;1419;-46
2021/05/20 03:02:22;;;;;;;;;;;18.70;50.80;;;;;;461903;257;1136;-46
2021/05/20 03:04:23;;;;;;;;;;;18.70;50.90;;;;;;460829;256;2160;-46
2021/05/20 03:06:24;;;;;;;;;;;18.70;50.90;;;;;;461853;257;1415;-46
2021/05/20 03:08:25;;;;;;;;;;;18.70;51.00;;;;;;462077;256;1081;-46
2021/05/20 03:10:27;;;;;;;;;;;18.60;51.10;;;;;;467737;254;1089;-46
2021/05/20 03:12:28;;;;;;;;;;;18.60;51.10;;;;;;460022;259;1173;-46
2021/05/20 03:14:29;;;;;;;;;;;18.60;51.10;;;;;;460242;258;1070;-46
2021/05/20 03:16:30;;;;;;;;;;;18.60;51.10;;;;;;461875;257;1176;-45
2021/05/20 03:18:32;;;;;;;;;;;18.60;51.10;;;;;;461957;256;1089;-46
2021/05/20 03:20:33;;;;;;;;;;;18.60;51.20;;;;;;468208;253;1065;-46
2021/05/20 03:22:34;;;;;;;;;;;18.50;51.20;;;;;;462057;257;1330;-46
2021/05/20 03:24:36;;;;;;;;;;;18.50;51.30;;;;;;460630;256;2162;-46
2021/05/20 03:26:37;;;;;;;;;;;18.50;51.40;;;;;;460481;259;1320;-46
2021/05/20 03:28:38;;;;;;;;;;;18.40;51.40;;;;;;462032;257;1117;-45
2021/05/20 03:30:39;;;;;;;;;;;18.40;51.30;;;;;;461798;256;1504;-46
2021/05/20 03:32:41;;;;;;;;;;;18.40;51.40;;;;;;461715;256;1291;-46
2021/05/20 03:34:42;;;;;;;;;;;18.40;51.40;;;;;;460837;256;1080;-46
2021/05/20 03:36:43;;;;;;;;;;;18.40;51.40;;;;;;461849;257;1394;-46
2021/05/20 03:38:44;;;;;;;;;;;18.40;51.40;;;;;;460624;256;1067;-46
2021/05/20 03:40:46;;;;;;;;;;;18.30;51.50;;;;;;460563;258;1149;-46
2021/05/20 03:42:47;;;;;;;;;;;18.40;51.50;;;;;;463157;257;1344;-46
2021/05/20 03:44:48;;;;;;;;;;;18.40;51.50;;;;;;460683;256;2145;-46
2021/05/20 03:46:50;;;;;;;;;;;18.40;51.40;;;;;;462159;257;1318;-46
2021/05/20 03:48:51;;;;;;;;;;;18.70;50.70;;;;;;461079;256;1091;-46
2021/05/20 03:50:54;;;;;;;;;;;19.10;49.50;;;;;;461926;257;1168;-46
2021/05/20 03:52:53;;;;;;;;;;;19.50;48.50;;;;;;462062;256;1272;-46
2021/05/20 03:54:55;;;;;;;;;;;19.70;47.90;;;;;;461775;256;1442;-46
2021/05/20 03:56:56;;;;;;;;;;;20.00;47.30;;;;;;462121;256;1138;-46
2021/05/20 03:58:57;;;;;;;;;;;20.10;46.90;;;;;;461872;256;1228;-46
2021/05/20 04:00:59;;;;;;;;;;;20.20;46.60;;;;;;461906;256;1723;-46
2021/05/20 04:03:00;;;;;;;;;;;20.30;46.40;;;;;;461823;256;1198;-45
2021/05/20 04:05:01;;;;;;;;;;;20.40;46.20;;;;;;461867;256;2203;-45
2021/05/20 04:07:02;;;;;;;;;;;20.40;46.00;;;;;;467898;252;1313;-45
2021/05/20 04:09:04;;;;;;;;;;;20.50;46.00;;;;;;461894;257;1122;-45
2021/05/20 04:11:05;;;;;;;;;;;20.50;45.80;;;;;;460971;256;1274;-45
2021/05/20 04:13:06;;;;;;;;;;;20.60;45.70;;;;;;461994;255;1223;-45
2021/05/20 04:15:08;;;;;;;;;;;20.70;45.60;;;;;;461854;256;1085;-45
2021/05/20 04:17:09;;;;;;;;;;;20.70;45.40;;;;;;460868;256;1334;-45
2021/05/20 04:19:11;;;;;;;;;;;20.70;45.30;;;;;;462053;257;1102;-45
2021/05/20 04:21:12;;;;;;;;;;;20.80;45.30;;;;;;461629;257;1503;-45
2021/05/20 04:23:13;;;;;;;;;;;20.80;45.20;;;;;;467639;252;1353;-45
2021/05/20 04:25:14;;;;;;;;;;;20.90;45.10;;;;;;461732;257;2141;-45
2021/05/20 04:27:16;;;;;;;;;;;20.90;45.10;;;;;;467478;253;1617;-45
2021/05/20 04:29:17;;;;;;;;;;;20.90;44.90;;;;;;461775;257;1753;-45
2021/05/20 04:31:18;;;;;;;;;;;20.90;44.90;;;;;;460499;256;1231;-45
2021/05/20 04:33:20;;;;;;;;;;;21.00;44.80;;;;;;461814;257;1110;-45
2021/05/20 04:35:21;;;;;;;;;;;21.00;44.80;;;;;;461713;258;2202;-45
2021/05/20 04:37:22;;;;;;;;;;;21.00;44.70;;;;;;461686;256;1516;-45
2021/05/20 04:39:23;;;;;;;;;;;21.10;44.70;;;;;;468027;252;1128;-45
2021/05/20 04:41:24;;;;;;;;;;;21.10;44.60;;;;;;459856;258;1327;-45
2021/05/20 04:43:26;;;;;;;;;;;21.10;44.60;;;;;;461765;257;1181;-45
2021/05/20 04:45:27;;;;;;;;;;;21.10;44.50;;;;;;461793;256;2198;-45
2021/05/20 04:47:28;;;;;;;;;;;21.20;44.50;;;;;;461539;256;1296;-45
2021/05/20 04:49:30;;;;;;;;;;;21.20;44.40;;;;;;461566;256;1111;-45
2021/05/20 04:51:31;;;;;;;;;;;21.20;44.40;;;;;;460145;259;1351;-45
2021/05/20 04:53:34;;;;;;;;;;;21.20;44.30;;;;;;462756;257;1095;-45
2021/05/20 04:55:33;;;;;;;;;;;21.20;44.30;;;;;;462740;257;1944;-45
2021/05/20 04:57:35;;;;;;;;;;;21.20;44.30;;;;;;463259;253;1252;-45
2021/05/20 04:59:36;;;;;;;;;;;21.30;44.30;;;;;;463041;255;1141;-45
2021/05/20 05:01:37;;;;;;;;;;;21.20;44.20;;;;;;460427;257;1547;-45
2021/05/20 05:03:39;;;;;;;;;;;21.30;44.20;;;;;;461757;257;1164;-45
2021/05/20 05:05:40;;;;;;;;;;;21.30;44.20;;;;;;460486;259;2170;-45
2021/05/20 05:07:41;;;;;;;;;;;21.30;44.20;;;;;;462945;257;1264;-45
2021/05/20 05:09:42;;;;;;;;;;;21.30;44.10;;;;;;460195;257;1081;-45
2021/05/20 05:11:44;;;;;;;;;;;21.30;44.10;;;;;;460152;258;1274;-45
2021/05/20 05:13:45;;;;;;;;;;;21.30;44.10;;;;;;460179;259;1230;-45
2021/05/20 05:15:46;;;;;;;;;;;21.30;44.10;;;;;;460375;258;1447;-45
2021/05/20 05:17:47;;;;;;;;;;;21.40;44.10;;;;;;462875;257;1248;-45
2021/05/20 05:19:49;;;;;;;;;;;21.40;44.10;;;;;;463157;255;1106;-45
2021/05/20 05:21:50;;;;;;;;;;;21.40;44.00;;;;;;460346;258;2312;-45
2021/05/20 05:23:53;;;;;;;;;;;21.40;44.10;;;;;;470200;253;1101;-45
2021/05/20 05:25:52;;;;;;;;;;;21.40;44.10;;;;;;460449;257;2504;-45
2021/05/20 05:27:54;;;;;;;;;;;21.40;44.10;;;;;;461849;256;1224;-45
2021/05/20 05:29:55;;;;;;;;;;;21.40;44.00;;;;;;461595;256;1246;-45
2021/05/20 05:31:56;;;;;;;;;;;21.40;44.00;;;;;;461572;256;1247;-45
2021/05/20 05:33:58;;;;;;;;;;;21.40;44.00;;;;;;461642;256;1201;-45
2021/05/20 05:35:59;;;;;;;;;;;21.50;44.00;;;;;;461623;256;1135;-45
2021/05/20 05:38:00;;;;;;;;;;;21.50;44.00;;;;;;467478;255;1169;-45
2021/05/20 05:40:02;;;;;;;;;;;21.50;43.90;;;;;;459848;259;1155;-45
2021/05/20 05:42:03;;;;;;;;;;;21.50;43.90;;;;;;459906;258;1211;-45
2021/05/20 05:44:04;;;;;;;;;;;21.50;43.90;;;;;;460957;257;1309;-45
2021/05/20 05:46:06;;;;;;;;;;;21.50;43.90;;;;;;460831;258;2148;-45
2021/05/20 05:48:11;;;;;;;;;;;21.50;43.90;;;;;;460784;258;1116;-45
2021/05/20 05:50:11;;;;;;;;;;;21.50;43.90;;;;;;460544;258;1339;-45
2021/05/20 05:52:16;;;;;;;;;;;21.50;43.90;;;;;;460499;258;2132;-45
2021/05/20 05:54:11;;;;;;;;;;;21.50;43.90;;;;;;460482;258;1724;-45
2021/05/20 05:56:12;;;;;;;;;;;21.50;43.80;;;;;;460624;258;1233;-45
2021/05/20 05:58:14;;;;;;;;;;;21.50;43.90;;;;;;460712;258;1222;-45
2021/05/20 06:00:15;;;;;;;;;;;21.50;44.00;;;;;;460701;258;1217;-45
2021/05/20 06:02:16;;;;;;;;;;;21.50;43.90;;;;;;460553;258;1152;-45
2021/05/20 06:04:18;;;;;;;;;;;21.50;43.80;;;;;;460613;258;1358;-45
2021/05/20 06:06:19;;;;;;;;;;;21.50;43.90;;;;;;460558;258;2216;-45
2021/05/20 06:08:20;;;;;;;;;;;21.60;43.90;;;;;;460571;258;1533;-45
2021/05/20 06:10:23;;;;;;;;;;;21.60;43.80;;;;;;460737;258;1247;-45
2021/05/20 06:12:23;;;;;;;;;;;21.60;43.80;;;;;;460523;258;1951;-45
2021/05/20 06:14:24;;;;;;;;;;;21.60;43.80;;;;;;460420;258;1433;-45
2021/05/20 06:16:26;;;;;;;;;;;21.60;43.70;;;;;;460567;258;1184;-45
2021/05/20 06:18:27;;;;;;;;;;;21.60;43.70;;;;;;461097;258;1216;-45
2021/05/20 06:20:28;;;;;;;;;;;21.70;43.70;;;;;;460555;258;1218;-45
2021/05/20 06:22:30;;;;;;;;;;;21.70;43.60;;;;;;461120;258;1094;-45
2021/05/20 06:24:31;;;;;;;;;;;21.70;43.50;;;;;;460611;258;1173;-45
2021/05/20 06:26:32;;;;;;;;;;;21.80;43.50;;;;;;460607;258;2208;-45
2021/05/20 06:28:36;;;;;;;;;;;21.80;43.40;;;;;;460943;258;1181;-45
2021/05/20 06:30:35;;;;;;;;;;;21.80;43.40;;;;;;460352;258;2287;-45
2021/05/20 06:32:36;;;;;;;;;;;21.80;43.40;;;;;;460526;258;1119;-46
2021/05/20 06:34:38;;;;;;;;;;;21.80;43.40;;;;;;460470;258;1105;-45
2021/05/20 06:36:39;;;;;;;;;;;21.90;43.30;;;;;;460436;258;1607;-45
2021/05/20 06:38:40;;;;;;;;;;;21.90;43.20;;;;;;460540;258;1206;-45
2021/05/20 06:40:41;;;;;;;;;;;21.90;43.30;;;;;;460579;258;1195;-45
2021/05/20 06:42:43;;;;;;;;;;;21.90;43.30;;;;;;460550;258;1165;-45
2021/05/20 06:44:44;;;;;;;;;;;21.90;43.30;;;;;;460608;258;1092;-45
2021/05/20 06:46:45;;;;;;;;;;;21.80;43.40;;;;;;460481;258;2212;-45
2021/05/20 06:48:47;;;;;;;;;;;21.40;44.40;;;;;;460505;258;1215;-45
2021/05/20 06:50:48;;;;;;;;;;;20.90;45.50;;;;;;460391;258;1421;-45
2021/05/20 06:52:50;;;;;;;;;;;20.50;46.30;;;;;;460536;258;1110;-45
2021/05/20 06:54:51;;;;;;;;;;;20.20;47.00;;;;;;460150;258;2009;-45
2021/05/20 06:56:55;;;;;;;;;;;20.00;47.70;;;;;;460154;258;1316;-45
2021/05/20 07:01:12;;;;;;;;;;;19.80;48.30;;;;;;460255;258;1320;-45
2021/05/20 07:03:16;;;;;;;;;;;19.60;48.60;;;;;;460405;258;1369;-45
2021/05/20 07:05:16;;;;;;;;;;;19.50;48.80;;;;;;460609;258;2196;-45
2021/05/20 07:07:17;;;;;;;;;;;19.50;49.00;;;;;;460214;258;1184;-45
2021/05/20 07:09:18;;;;;;;;;;;19.40;49.10;;;;;;460435;258;1006;-45
2021/05/20 07:11:20;;;;;;;;;;;19.40;49.30;;;;;;460841;258;1587;-45
2021/05/20 07:13:21;;;;;;;;;;;19.40;49.30;;;;;;460952;258;1114;-45
2021/05/20 07:15:22;;;;;;;;;;;19.30;49.50;;;;;;460336;258;1315;-45
2021/05/20 07:17:23;;;;;;;;;;;19.20;49.60;;;;;;460098;258;1374;-45
2021/05/20 07:19:25;;;;;;;;;;;19.10;49.80;;;;;;460640;258;1205;-45
2021/05/20 07:21:26;;;;;;;;;;;19.10;49.90;;;;;;460476;258;1120;-45
2021/05/20 07:23:27;;;;;;;;;;;19.10;49.90;;;;;;460486;258;1121;-45
2021/05/20 07:25:29;;;;;;;;;;;19.10;50.10;;;;;;460310;258;2219;-44
2021/05/20 07:27:30;;;;;;;;;;;19.10;50.00;;;;;;460273;258;1222;-45
2021/05/20 07:29:31;;;;;;;;;;;19.10;49.90;;;;;;460958;258;1206;-45
2021/05/20 07:31:32;;;;;;;;;;;19.00;50.00;;;;;;460517;258;1287;-45
2021/05/20 07:33:35;;;;;;;;;;;19.00;50.10;;;;;;460150;258;1235;-45
2021/05/20 07:35:35;;;;;;;;;;;19.00;50.10;;;;;;460082;258;2167;-45
2021/05/20 07:37:36;;;;;;;;;;;19.00;50.30;;;;;;460806;258;1096;-45
2021/05/20 07:39:38;;;;;;;;;;;18.90;50.40;;;;;;460797;258;1053;-45
2021/05/20 07:41:41;;;;;;;;;;;18.90;50.40;;;;;;460755;258;1202;-45
2021/05/20 07:43:40;;;;;;;;;;;18.90;50.40;;;;;;460448;258;1941;-45
2021/05/20 07:45:41;;;;;;;;;;;18.80;50.50;;;;;;460323;258;2207;-45
2021/05/20 07:47:43;;;;;;;;;;;18.80;50.50;;;;;;460571;258;1081;-45
2021/05/20 07:49:44;;;;;;;;;;;18.90;50.40;;;;;;460746;258;1124;-45
2021/05/20 07:51:45;;;;;;;;;;;18.90;50.40;;;;;;460341;258;1387;-45
2021/05/20 07:53:46;;;;;;;;;;;18.80;50.40;;;;;;460902;258;905;-45
2021/05/20 07:55:48;;;;;;;;;;;18.90;50.30;;;;;;460627;258;1197;-45
2021/05/20 07:57:53;;;;;;;;;;;18.90;50.30;;;;;;460674;258;1114;-45
2021/05/20 07:59:52;;;;;;;;;;;18.90;50.30;;;;;;460601;258;2327;-45
2021/05/20 08:01:57;;;;;;;;;;;18.80;50.30;;;;;;460449;258;2135;-45
2021/05/20 08:03:57;;;;;;;;;;;18.80;50.40;;;;;;460358;258;2253;-45
2021/05/20 08:06:01;;;;;;;;;;;18.80;50.40;;;;;;460777;258;2232;-45
2021/05/20 08:08:03;;;;;;;;;;;18.80;50.50;;;;;;460166;258;1338;-45
2021/05/20 08:10:11;;;;;;;;;;;18.70;50.60;;;;;;459977;258;2079;-45
2021/05/20 08:12:08;;;;;;;;;;;18.70;50.70;;;;;;460478;258;1396;-45
2021/05/20 08:14:09;;;;;;;;;;;18.70;50.70;;;;;;460307;258;1125;-45
2021/05/20 08:16:10;;;;;;;;;;;18.70;50.70;;;;;;460287;258;1402;-45
2021/05/20 08:18:11;;;;;;;;;;;18.70;50.60;;;;;;460319;258;1192;-45
2021/05/20 08:20:12;;;;;;;;;;;18.70;50.60;;;;;;460666;258;1284;-45
2021/05/20 08:22:14;;;;;;;;;;;18.80;50.50;;;;;;460334;258;1188;-45
2021/05/20 08:24:15;;;;;;;;;;;18.70;50.40;;;;;;460497;258;1138;-45
2021/05/20 08:26:18;;;;;;;;;;;18.70;50.50;;;;;;460114;258;2224;-45
2021/05/20 08:28:18;;;;;;;;;;;18.70;50.60;;;;;;460364;258;1809;-45
2021/05/20 08:30:20;;;;;;;;;;;18.70;50.60;;;;;;460470;258;998;-45
2021/05/20 08:32:20;;;;;;;;;;;18.70;50.70;;;;;;460425;258;2200;-45
2021/05/20 08:34:21;;;;;;;;;;;18.70;50.70;;;;;;460362;258;807;-45
2021/05/20 08:36:23;;;;;;;;;;;18.60;50.70;;;;;;460277;258;1051;-45
2021/05/20 08:38:24;;;;;;;;;;;18.60;50.80;;;;;;460790;258;1311;-45
2021/05/20 08:40:25;;;;;;;;;;;18.60;50.70;;;;;;460534;258;1318;-45
2021/05/20 08:42:26;;;;;;;;;;;19.00;49.90;;;;;;460919;258;801;-45
2021/05/20 08:44:28;;;;;;;;;;;19.50;48.70;;;;;;460880;258;862;-45
2021/05/20 08:46:29;;;;;;;;;;;19.80;47.70;;;;;;460792;258;2212;-45
2021/05/20 08:48:30;;;;;;;;;;;20.10;47.10;;;;;;460354;258;1190;-45
2021/05/20 08:50:32;;;;;;;;;;;20.30;46.60;;;;;;460794;258;1158;-45
2021/05/20 08:52:33;;;;;;;;;;;20.40;46.20;;;;;;460534;258;1132;-45
2021/05/20 08:54:35;;;;;;;;;;;20.50;45.90;;;;;;460421;258;1108;-45
2021/05/20 08:56:35;;;;;;;;;;;20.60;45.80;;;;;;460301;258;1134;-45
2021/05/20 08:58:37;;;;;;;;;;;20.70;45.60;;;;;;460837;253;1374;-45
2021/05/20 09:00:38;;;;;;;;;;;20.70;45.40;;;;;;460525;258;1455;-45
2021/05/20 09:02:39;;;;;;;;;;;20.80;45.30;;;;;;460298;258;1174;-45
2021/05/20 09:04:41;;;;;;;;;;;20.90;45.20;;;;;;460195;258;1201;-45
2021/05/20 09:06:43;;;;;;;;;;;20.90;45.00;;;;;;459987;258;2216;-45
2021/05/20 09:08:43;;;;;;;;;;;20.90;44.90;;;;;;460073;258;2041;-45
2021/05/20 09:10:44;;;;;;;;;;;21.00;44.80;;;;;;460790;258;1066;-45
2021/05/20 09:12:46;;;;;;;;;;;21.00;44.70;;;;;;460353;258;774;-45
2021/05/20 09:14:47;;;;;;;;;;;21.10;44.70;;;;;;460774;258;783;-45
2021/05/20 09:16:48;;;;;;;;;;;21.10;44.60;;;;;;460823;258;811;-45
2021/05/20 09:18:49;;;;;;;;;;;21.10;44.50;;;;;;460358;258;1190;-45
2021/05/20 09:20:51;;;;;;;;;;;21.20;44.50;;;;;;460747;258;1304;-45
2021/05/20 09:22:52;;;;;;;;;;;21.20;44.40;;;;;;460965;258;1030;-45
2021/05/20 09:24:53;;;;;;;;;;;21.20;44.40;;;;;;460418;258;832;-45
2021/05/20 09:26:55;;;;;;;;;;;21.20;44.30;;;;;;459556;258;2196;-45
2021/05/20 09:28:56;;;;;;;;;;;21.30;44.30;;;;;;460862;258;785;-45
2021/05/20 09:30:57;;;;;;;;;;;21.30;44.20;;;;;;461035;253;1208;-45
2021/05/20 09:32:59;;;;;;;;;;;21.30;44.20;;;;;;460082;258;1354;-45
2021/05/20 09:35:00;;;;;;;;;;;21.40;44.10;;;;;;460813;258;823;-45
2021/05/20 09:37:01;;;;;;;;;;;21.40;44.10;;;;;;460722;258;1349;-45
2021/05/20 09:39:02;;;;;;;;;;;21.40;44.10;;;;;;460900;258;819;-45
2021/05/20 09:41:06;;;;;;;;;;;21.50;44.00;;;;;;460408;258;1198;-45
2021/05/20 09:43:05;;;;;;;;;;;21.50;44.00;;;;;;460404;258;2420;-45
2021/05/20 09:45:06;;;;;;;;;;;21.50;43.90;;;;;;460742;258;914;-45
2021/05/20 09:47:07;;;;;;;;;;;21.50;43.90;;;;;;460715;258;2203;-45
2021/05/20 09:49:09;;;;;;;;;;;21.50;43.80;;;;;;460426;258;1146;-45
2021/05/20 09:51:10;;;;;;;;;;;21.50;43.80;;;;;;460645;258;771;-45
2021/05/20 09:53:11;;;;;;;;;;;21.60;43.80;;;;;;460766;258;833;-45
2021/05/20 09:55:12;;;;;;;;;;;21.60;43.70;;;;;;461081;258;1348;-45
2021/05/20 09:57:14;;;;;;;;;;;21.60;43.70;;;;;;460765;258;1029;-45
2021/05/20 09:59:16;;;;;;;;;;;21.60;43.60;;;;;;460777;258;1253;-45
2021/05/20 10:01:17;;;;;;;;;;;21.60;43.60;;;;;;460474;258;2047;-45
2021/05/20 10:03:19;;;;;;;;;;;21.60;43.60;;;;;;460256;258;1255;-45
2021/05/20 10:05:19;;;;;;;;;;;21.70;43.60;;;;;;460164;258;2344;-45
2021/05/20 10:07:20;;;;;;;;;;;21.70;43.50;;;;;;460424;258;2204;-45
2021/05/20 10:09:22;;;;;;;;;;;21.70;43.50;;;;;;460324;259;1381;-45
2021/05/20 10:11:23;;;;;;;;;;;21.80;43.40;;;;;;460229;258;1549;-45
2021/05/20 10:13:24;;;;;;;;;;;21.80;43.40;;;;;;460645;258;1108;-45
2021/05/20 10:15:26;;;;;;;;;;;21.80;43.40;;;;;;460231;258;1197;-45
2021/05/20 10:17:27;;;;;;;;;;;21.90;43.40;;;;;;460391;258;1218;-45
2021/05/20 10:19:28;;;;;;;;;;;21.80;43.30;;;;;;460516;258;1368;-45
2021/05/20 10:21:29;;;;;;;;;;;21.90;43.30;;;;;;460336;258;1178;-45
2021/05/20 10:23:31;;;;;;;;;;;21.90;43.30;;;;;;460482;258;1255;-45
2021/05/20 10:25:32;;;;;;;;;;;21.90;43.20;;;;;;460499;258;1291;-45
2021/05/20 10:27:33;;;;;;;;;;;21.90;43.20;;;;;;460358;258;2149;-45
2021/05/20 10:29:34;;;;;;;;;;;21.90;43.20;;;;;;460267;258;1200;-45
2021/05/20 10:31:36;;;;;;;;;;;21.90;43.20;;;;;;460508;258;1293;-45
2021/05/20 10:33:37;;;;;;;;;;;21.90;43.20;;;;;;459823;258;1201;-45
2021/05/20 10:35:38;;;;;;;;;;;22.00;43.20;;;;;;460419;258;1220;-45
2021/05/20 10:37:40;;;;;;;;;;;21.90;43.30;;;;;;460375;258;1245;-45
2021/05/20 10:39:41;;;;;;;;;;;22.00;43.00;;;;;;461102;258;1145;-45
2021/05/20 10:41:42;;;;;;;;;;;21.70;43.50;;;;;;460378;258;1159;-45
2021/05/20 10:43:43;;;;;;;;;;;21.20;44.90;;;;;;460438;258;1137;-45
2021/05/20 10:45:45;;;;;;;;;;;20.70;45.90;;;;;;460426;258;1253;-45
2021/05/20 10:47:46;;;;;;;;;;;20.40;46.80;;;;;;460392;258;2198;-45
2021/05/20 10:49:48;;;;;;;;;;;20.20;47.20;;;;;;460709;258;1211;-44
2021/05/20 10:51:49;;;;;;;;;;;20.00;47.70;;;;;;460485;258;2192;-45
2021/05/20 10:53:50;;;;;;;;;;;19.90;48.00;;;;;;460571;258;1083;-45
2021/05/20 10:55:51;;;;;;;;;;;19.80;48.40;;;;;;459963;258;1358;-45
2021/05/20 10:57:52;;;;;;;;;;;19.60;48.70;;;;;;460067;258;1397;-45
2021/05/20 10:59:54;;;;;;;;;;;19.50;48.90;;;;;;460763;258;1187;-45
2021/05/20 11:01:55;;;;;;;;;;;19.50;49.00;;;;;;460339;258;1319;-45
2021/05/20 11:03:56;;;;;;;;;;;19.40;49.20;;;;;;460670;258;1187;-45
2021/05/20 11:05:58;;;;;;;;;;;19.40;49.20;;;;;;460576;258;1426;-45
2021/05/20 11:07:59;;;;;;;;;;;19.40;49.30;;;;;;460607;258;2216;-45
2021/05/20 11:10:00;;;;;;;;;;;19.40;49.40;;;;;;460569;258;1132;-45
2021/05/20 11:12:02;;;;;;;;;;;19.30;49.60;;;;;;460582;258;1222;-45
2021/05/20 11:14:03;;;;;;;;;;;19.20;49.60;;;;;;460533;258;1079;-45
2021/05/20 11:16:04;;;;;;;;;;;19.20;49.70;;;;;;461116;258;1273;-45
2021/05/20 11:18:05;;;;;;;;;;;19.20;49.90;;;;;;460669;258;936;-45
2021/05/20 11:20:06;;;;;;;;;;;19.10;50.00;;;;;;460668;258;1111;-45
2021/05/20 11:22:09;;;;;;;;;;;19.10;50.20;;;;;;460379;258;1353;-45
2021/05/20 11:24:09;;;;;;;;;;;19.00;50.10;;;;;;460155;258;1907;-45
2021/05/20 11:26:11;;;;;;;;;;;19.10;50.20;;;;;;460210;258;1540;-44
2021/05/20 11:28:12;;;;;;;;;;;19.10;50.10;;;;;;460231;258;2203;-44
2021/05/20 11:30:13;;;;;;;;;;;19.00;50.30;;;;;;460222;258;1141;-44
2021/05/20 11:32:19;;;;;;;;;;;19.00;50.30;;;;;;460154;258;1253;-44
2021/05/20 11:36:27;;;;;;;;;;;18.90;50.40;;;;;;460617;258;1433;-45
2021/05/20 11:38:28;;;;;;;;;;;18.90;50.40;;;;;;460485;258;1122;-44
2021/05/20 11:40:30;;;;;;;;;;;18.90;50.40;;;;;;460250;258;1385;-44
2021/05/20 11:42:32;;;;;;;;;;;18.90;50.60;;;;;;460488;258;1306;-44
2021/05/20 11:44:33;;;;;;;;;;;18.80;50.50;;;;;;460086;258;2013;-44
2021/05/20 11:46:34;;;;;;;;;;;18.80;50.60;;;;;;460068;258;2153;-44
2021/05/20 11:48:36;;;;;;;;;;;18.80;50.60;;;;;;460257;258;1197;-44
2021/05/20 11:50:37;;;;;;;;;;;18.80;50.60;;;;;;460156;254;1280;-44
2021/05/20 11:52:38;;;;;;;;;;;18.80;50.60;;;;;;460311;258;1909;-44
2021/05/20 11:54:39;;;;;;;;;;;18.80;50.60;;;;;;460428;258;1170;-44
2021/05/20 11:56:41;;;;;;;;;;;18.80;50.60;;;;;;460267;258;1449;-44
2021/05/20 11:58:42;;;;;;;;;;;18.80;50.70;;;;;;460367;258;2144;-44
2021/05/20 12:00:43;;;;;;;;;;;18.80;50.60;;;;;;460546;258;1336;-45